createdAt,value
2019-02-08T00:02:11.212Z,19.07
2019-02-08T00:04:40.545Z,18.90
2019-02-08T00:07:10.518Z,16.90
2019-02-08T00:09:40.110Z,17.07
2019-02-08T00:12:09.555Z,16.20
2019-02-08T00:14:38.954Z,17.77
2019-02-08T00:17:08.420Z,16.27
2019-02-08T00:19:37.731Z,17.53
2019-02-08T00:22:07.666Z,17.20
2019-02-08T00:24:37.374Z,17.53
2019-02-08T00:27:06.734Z,16.80
2019-02-08T00:29:36.083Z,17.17
2019-02-08T00:32:05.448Z,17.70
2019-02-08T00:34:34.792Z,16.53
2019-02-08T00:37:04.164Z,17.20
2019-02-08T00:39:33.898Z,16.63
2019-02-08T00:42:03.249Z,18.40
2019-02-08T00:44:32.592Z,16.03
2019-02-08T00:47:01.962Z,16.27
2019-02-08T00:49:31.297Z,15.63
2019-02-08T00:52:00.662Z,15.97
2019-02-08T00:54:30.649Z,17.30
2019-02-08T00:57:01.173Z,17.17
2019-02-08T00:59:33.369Z,18.03
2019-02-08T01:02:06.596Z,16.70
2019-02-08T01:04:42.533Z,19.67
2019-02-08T01:07:12.326Z,17.17
2019-02-08T01:09:41.660Z,16.73
2019-02-08T01:12:11.285Z,16.83
2019-02-08T01:14:40.689Z,17.50
2019-02-08T01:17:10.050Z,15.13
2019-02-08T01:19:39.423Z,16.77
2019-02-08T01:22:09.245Z,17.80
2019-02-08T01:24:38.574Z,17.17
2019-02-08T01:27:08.017Z,16.57
2019-02-08T01:29:37.461Z,17.73
2019-02-08T01:32:06.843Z,17.13
2019-02-08T01:34:36.175Z,18.33
2019-02-08T01:37:05.536Z,17.80
2019-02-08T01:39:34.868Z,18.07
2019-02-08T01:42:04.235Z,16.17
2019-02-08T01:44:33.574Z,16.40
2019-02-08T01:47:02.939Z,16.13
2019-02-08T01:49:32.285Z,16.10
2019-02-08T01:52:01.656Z,15.40
2019-02-08T01:54:30.990Z,16.07
2019-02-08T01:57:00.359Z,16.13
2019-02-08T01:59:29.697Z,15.30
2019-02-08T02:01:59.062Z,16.33
2019-02-08T02:04:28.395Z,14.97
2019-02-08T02:06:59.545Z,14.87
2019-02-08T02:09:43.154Z,17.07
2019-02-08T02:12:17.790Z,16.57
2019-02-08T02:14:51.493Z,14.97
2019-02-08T02:17:20.840Z,15.47
2019-02-08T02:19:50.176Z,17.50
2019-02-08T02:22:19.542Z,15.77
2019-02-08T02:24:48.881Z,14.37
2019-02-08T02:27:18.264Z,14.77
2019-02-08T02:29:47.593Z,14.80
2019-02-08T02:32:16.959Z,16.50
2019-02-08T02:34:46.291Z,14.53
2019-02-08T02:37:15.655Z,15.77
2019-02-08T02:39:44.995Z,16.57
2019-02-08T02:42:14.525Z,13.90
2019-02-08T02:44:43.861Z,15.20
2019-02-08T02:47:13.235Z,15.43
2019-02-08T02:49:43.005Z,13.77
2019-02-08T02:52:12.370Z,13.73
2019-02-08T02:54:41.717Z,14.47
2019-02-08T02:57:11.202Z,14.10
2019-02-08T02:59:40.537Z,15.33
2019-02-08T03:02:09.910Z,14.90
2019-02-08T03:04:39.249Z,15.27
2019-02-08T03:07:09.193Z,15.60
2019-02-08T03:09:38.526Z,14.87
2019-02-08T03:12:07.891Z,15.20
2019-02-08T03:14:37.358Z,15.73
2019-02-08T03:17:14.245Z,14.47
2019-02-08T03:19:46.807Z,13.40
2019-02-08T03:22:18.646Z,12.97
2019-02-08T03:24:50.643Z,15.10
2019-02-08T03:27:20.078Z,13.83
2019-02-08T03:29:49.417Z,13.80
2019-02-08T03:32:18.857Z,14.23
2019-02-08T03:34:48.220Z,14.67
2019-02-08T03:37:17.586Z,14.27
2019-02-08T03:39:47.121Z,13.50
2019-02-08T03:42:16.454Z,14.73
2019-02-08T03:44:45.819Z,14.00
2019-02-08T03:47:15.156Z,13.80
2019-02-08T03:49:44.522Z,15.90
2019-02-08T03:52:14.234Z,14.00
2019-02-08T03:54:43.605Z,13.10
2019-02-08T03:57:12.946Z,14.17
2019-02-08T03:59:42.308Z,13.80
2019-02-08T04:02:11.639Z,13.40
2019-02-08T04:04:41.012Z,14.47
2019-02-08T04:07:10.347Z,12.90
2019-02-08T04:09:39.704Z,14.60
2019-02-08T04:12:09.056Z,15.10
2019-02-08T04:14:38.415Z,15.23
2019-02-08T04:17:07.762Z,17.37
2019-02-08T04:19:37.432Z,17.67
2019-02-08T04:22:06.774Z,16.87
2019-02-08T04:24:36.136Z,16.97
2019-02-08T04:27:05.473Z,15.60
2019-02-08T04:29:34.845Z,15.90
2019-02-08T04:32:05.585Z,14.77
2019-02-08T04:34:38.259Z,14.40
2019-02-08T04:37:13.574Z,14.17
2019-02-08T04:39:44.991Z,13.03
2019-02-08T04:42:14.348Z,14.40
2019-02-08T04:44:43.716Z,14.40
2019-02-08T04:47:13.049Z,15.00
2019-02-08T04:49:42.419Z,14.00
2019-02-08T04:52:11.749Z,12.23
2019-02-08T04:54:41.123Z,16.67
2019-02-08T04:57:10.525Z,15.60
2019-02-08T04:59:40.373Z,15.23
2019-02-08T05:02:09.707Z,14.37
2019-02-08T05:04:39.247Z,14.30
2019-02-08T05:07:08.650Z,13.97
2019-02-08T05:09:38.022Z,13.27
2019-02-08T05:12:07.353Z,16.47
2019-02-08T05:14:36.708Z,16.50
2019-02-08T05:17:06.049Z,16.33
2019-02-08T05:19:35.414Z,17.47
2019-02-08T05:22:04.752Z,16.17
2019-02-08T05:24:34.120Z,16.23
2019-02-08T05:27:03.455Z,14.73
2019-02-08T05:29:32.828Z,14.63
2019-02-08T05:32:02.162Z,13.20
2019-02-08T05:34:31.525Z,14.87
2019-02-08T05:37:00.861Z,16.63
2019-02-08T05:39:30.228Z,20.03
2019-02-08T05:42:04.221Z,24.27
2019-02-08T05:44:43.053Z,22.80
2019-02-08T05:47:14.200Z,46.97
2019-02-08T05:49:44.139Z,28.77
2019-02-08T05:52:14.300Z,27.97
2019-02-08T05:54:54.256Z,23.37
2019-02-08T05:57:19.623Z,21.87
2019-02-08T05:59:48.988Z,24.33
2019-02-08T06:02:18.313Z,20.13
2019-02-08T06:04:47.709Z,21.37
2019-02-08T06:07:17.044Z,24.53
2019-02-08T06:09:46.420Z,24.63
2019-02-08T06:12:15.755Z,22.67
2019-02-08T06:14:45.107Z,24.63
2019-02-08T06:17:14.449Z,29.10
2019-02-08T06:19:43.816Z,31.20
2019-02-08T06:22:18.558Z,30.20
2019-02-08T06:24:50.487Z,31.33
2019-02-08T06:27:21.291Z,31.67
2019-02-08T06:29:57.350Z,32.57
2019-02-08T06:32:26.977Z,33.80
2019-02-08T06:34:56.386Z,27.97
2019-02-08T06:37:25.725Z,25.13
2019-02-08T06:39:55.098Z,25.37
2019-02-08T06:42:31.272Z,26.20
2019-02-08T06:45:10.153Z,22.53
2019-02-08T06:47:46.687Z,20.20
2019-02-08T06:50:22.778Z,21.70
2019-02-08T06:52:57.007Z,20.60
2019-02-08T06:55:32.156Z,23.10
2019-02-08T06:58:03.298Z,21.63
2019-02-08T07:00:36.979Z,22.57
2019-02-08T07:03:07.950Z,24.77
2019-02-08T07:05:48.671Z,20.90
2019-02-08T07:08:35.591Z,22.40
2019-02-08T07:11:23.441Z,19.73
2019-02-08T07:14:10.404Z,18.90
2019-02-08T07:16:53.403Z,19.80
2019-02-08T07:19:25.146Z,17.93
2019-02-08T07:22:11.141Z,20.60
2019-02-08T07:24:56.576Z,20.80
2019-02-08T07:27:37.002Z,22.57
2019-02-08T07:30:13.927Z,23.80
2019-02-08T07:32:56.772Z,21.73
2019-02-08T07:35:33.461Z,22.87
2019-02-08T07:38:21.143Z,24.07
2019-02-08T07:40:56.778Z,23.53
2019-02-08T07:43:30.559Z,23.83
2019-02-08T07:46:17.234Z,26.97
2019-02-08T07:49:00.162Z,27.90
2019-02-08T07:51:31.143Z,31.97
2019-02-08T07:54:16.722Z,30.33
2019-02-08T07:56:53.671Z,28.50
2019-02-08T07:59:27.336Z,29.33
2019-02-08T08:02:17.004Z,20.57
2019-02-08T08:05:02.264Z,21.87
2019-02-08T08:07:48.030Z,19.40
2019-02-08T08:10:21.735Z,19.77
2019-02-08T08:13:09.858Z,17.37
2019-02-08T08:15:46.834Z,27.20
2019-02-08T08:18:33.463Z,18.13
2019-02-08T08:21:07.403Z,18.93
2019-02-08T08:23:41.081Z,35.50
2019-02-08T08:26:15.446Z,26.30
2019-02-08T08:29:03.473Z,26.47
2019-02-08T08:31:47.740Z,20.43
2019-02-08T08:34:26.514Z,21.57
2019-02-08T08:37:13.846Z,23.53
2019-02-08T08:39:58.309Z,44.97
2019-02-08T08:42:39.366Z,20.77
2019-02-08T08:45:26.854Z,22.57
2019-02-08T08:48:05.391Z,18.33
2019-02-08T08:50:50.064Z,29.27
2019-02-08T08:53:25.633Z,17.57
2019-02-08T08:56:01.206Z,18.63
2019-02-08T08:58:36.329Z,27.97
2019-02-08T09:01:14.927Z,25.93
2019-02-08T09:04:12.934Z,22.60
2019-02-08T09:07:17.920Z,19.40
2019-02-08T09:09:59.062Z,16.07
2019-02-08T09:12:46.849Z,16.03
2019-02-08T09:15:41.951Z,15.43
2019-02-08T09:18:47.856Z,17.63
2019-02-08T09:21:36.441Z,17.27
2019-02-08T09:24:14.761Z,16.10
2019-02-08T09:27:21.785Z,17.73
2019-02-08T09:30:09.040Z,16.37
2019-02-08T09:32:42.315Z,17.50
2019-02-08T09:35:23.626Z,17.97
2019-02-08T09:38:04.860Z,18.03
2019-02-08T09:40:40.647Z,16.67
2019-02-08T09:43:30.921Z,18.47
2019-02-08T09:46:19.742Z,18.30
2019-02-08T09:48:52.539Z,21.20
2019-02-08T09:51:49.049Z,19.73
2019-02-08T09:54:36.596Z,20.93
2019-02-08T09:57:12.200Z,18.03
2019-02-08T09:59:59.460Z,21.33
2019-02-08T10:02:54.536Z,18.33
2019-02-08T10:05:27.131Z,16.30
2019-02-08T10:08:31.138Z,19.47
2019-02-08T10:11:15.469Z,15.90
2019-02-08T10:14:06.338Z,14.67
2019-02-08T10:16:58.094Z,16.57
2019-02-08T10:19:58.803Z,19.30
2019-02-08T10:22:47.752Z,15.43
2019-02-08T10:25:46.907Z,16.40
2019-02-08T10:28:35.994Z,16.57
2019-02-08T10:31:11.575Z,16.57
2019-02-08T10:34:00.471Z,16.13
2019-02-08T10:36:45.095Z,14.77
2019-02-08T10:39:33.848Z,15.73
2019-02-08T10:42:21.324Z,14.57
2019-02-08T10:45:13.117Z,23.67
2019-02-08T10:48:06.496Z,15.10
2019-02-08T10:51:13.644Z,14.90
2019-02-08T10:54:20.875Z,17.47
2019-02-08T10:57:11.675Z,16.13
2019-02-08T11:00:02.148Z,21.80
2019-02-08T11:02:46.405Z,15.93
2019-02-08T11:05:47.279Z,17.20
2019-02-08T11:08:39.314Z,16.87
2019-02-08T11:11:23.954Z,17.37
2019-02-08T11:14:30.909Z,14.97
2019-02-08T11:17:18.605Z,27.23
2019-02-08T11:19:49.951Z,24.63
2019-02-08T11:22:19.334Z,21.37
2019-02-08T11:24:48.682Z,19.10
2019-02-08T11:27:18.138Z,20.33
2019-02-08T11:29:47.473Z,17.33
2019-02-08T11:32:16.865Z,16.67
2019-02-08T11:34:46.214Z,18.03
2019-02-08T11:37:15.634Z,14.53
2019-02-08T11:39:44.983Z,15.40
2019-02-08T11:42:14.372Z,21.47
2019-02-08T11:44:43.726Z,14.53
2019-02-08T11:47:13.183Z,25.70
2019-02-08T11:49:42.480Z,16.43
2019-02-08T11:52:11.890Z,17.50
2019-02-08T11:54:41.300Z,17.57
2019-02-08T11:57:11.184Z,21.07
2019-02-08T11:59:40.535Z,16.90
2019-02-08T12:02:09.911Z,15.00
2019-02-08T12:04:39.435Z,19.60
2019-02-08T12:07:08.813Z,19.30
2019-02-08T12:09:38.149Z,18.67
2019-02-08T12:12:07.525Z,27.93
2019-02-08T12:14:36.874Z,16.80
2019-02-08T12:17:06.245Z,24.33
2019-02-08T12:19:35.602Z,16.63
2019-02-08T12:22:04.972Z,16.93
2019-02-08T12:24:34.313Z,17.90
2019-02-08T12:27:03.732Z,15.47
2019-02-08T12:29:33.121Z,15.87
2019-02-08T12:32:02.476Z,16.50
2019-02-08T12:34:31.920Z,15.77
2019-02-08T12:37:01.262Z,13.40
2019-02-08T12:39:30.631Z,16.90
2019-02-08T12:41:59.977Z,12.93
2019-02-08T12:44:31.700Z,14.73
2019-02-08T12:47:09.474Z,14.50
2019-02-08T12:49:42.077Z,16.47
2019-02-08T12:52:11.910Z,21.17
2019-02-08T12:54:41.346Z,11.87
2019-02-08T12:57:10.696Z,14.67
2019-02-08T12:59:40.174Z,14.83
2019-02-08T13:02:09.517Z,11.20
2019-02-08T13:04:38.898Z,11.17
2019-02-08T13:07:08.237Z,10.70
2019-02-08T13:09:37.626Z,9.63
2019-02-08T13:12:06.958Z,11.30
2019-02-08T13:14:36.354Z,11.97
2019-02-08T13:17:15.790Z,9.87
2019-02-08T13:19:48.681Z,10.50
2019-02-08T13:22:26.334Z,11.90
2019-02-08T13:24:59.818Z,11.03
2019-02-08T13:27:29.206Z,11.97
2019-02-08T13:30:01.468Z,10.70
2019-02-08T13:32:32.363Z,12.03
2019-02-08T13:35:06.293Z,11.53
2019-02-08T13:37:39.291Z,14.97
2019-02-08T13:40:12.139Z,18.30
2019-02-08T13:42:41.489Z,13.83
2019-02-08T13:45:13.096Z,17.57
2019-02-08T13:47:46.375Z,15.83
2019-02-08T13:50:31.471Z,14.93
2019-02-08T13:53:00.813Z,17.73
2019-02-08T13:55:30.195Z,14.17
2019-02-08T13:58:00.010Z,12.90
2019-02-08T14:00:37.650Z,16.37
2019-02-08T14:03:11.875Z,17.20
2019-02-08T14:05:50.168Z,15.93
2019-02-08T14:08:23.853Z,17.30
2019-02-08T14:11:00.490Z,19.07
2019-02-08T14:13:30.579Z,22.07
2019-02-08T14:15:59.921Z,18.20
2019-02-08T14:18:29.833Z,13.27
2019-02-08T14:20:59.218Z,15.57
2019-02-08T14:23:28.555Z,14.27
2019-02-08T14:25:57.932Z,13.47
2019-02-08T14:28:27.277Z,11.83
2019-02-08T14:30:56.654Z,12.37
2019-02-08T14:33:25.995Z,15.10
2019-02-08T14:35:55.909Z,22.07
2019-02-08T14:38:25.574Z,12.03
2019-02-08T14:40:54.949Z,15.40
2019-02-08T14:43:24.296Z,11.07
2019-02-08T14:45:53.661Z,11.27
2019-02-08T14:48:22.997Z,11.87
2019-02-08T14:50:52.368Z,11.50
2019-02-08T14:53:21.714Z,12.23
2019-02-08T14:55:51.096Z,15.50
2019-02-08T14:58:20.434Z,15.83
2019-02-08T15:00:49.810Z,19.50
2019-02-08T15:03:19.148Z,25.03
2019-02-08T15:05:48.513Z,25.50
2019-02-08T15:08:17.842Z,19.00
2019-02-08T15:10:49.949Z,20.60
2019-02-08T15:13:19.285Z,20.80
2019-02-08T15:15:48.649Z,21.23
2019-02-08T15:18:18.793Z,18.40
2019-02-08T15:20:48.131Z,16.83
2019-02-08T15:23:17.457Z,18.70
2019-02-08T15:25:46.987Z,17.73
2019-02-08T15:28:16.342Z,23.70
2019-02-08T15:30:45.789Z,25.10
2019-02-08T15:33:15.332Z,33.07
2019-02-08T15:35:44.718Z,22.73
2019-02-08T15:38:14.058Z,41.87
2019-02-08T15:40:46.445Z,21.47
2019-02-08T15:43:17.825Z,31.40
2019-02-08T15:45:50.738Z,27.33
2019-02-08T15:48:20.084Z,28.03
2019-02-08T15:50:49.535Z,184.13
2019-02-08T15:53:18.878Z,127.87
2019-02-08T15:56:00.481Z,133.97
2019-02-08T15:58:29.823Z,71.97
2019-02-08T16:00:59.195Z,79.87
2019-02-08T16:03:28.603Z,78.93
2019-02-08T16:05:57.980Z,67.23
2019-02-08T16:08:27.322Z,74.93
2019-02-08T16:10:56.683Z,51.93
2019-02-08T16:13:26.033Z,50.03
2019-02-08T16:15:55.405Z,46.83
2019-02-08T16:18:24.753Z,52.50
2019-02-08T16:20:54.126Z,60.93
2019-02-08T16:23:23.468Z,48.97
2019-02-08T16:25:52.840Z,52.87
2019-02-08T16:28:22.188Z,58.97
2019-02-08T16:30:51.558Z,65.53
2019-02-08T16:33:20.943Z,82.07
2019-02-08T16:35:50.310Z,119.77
2019-02-08T16:38:19.722Z,93.57
2019-02-08T16:40:49.100Z,59.77
2019-02-08T16:43:18.441Z,97.67
2019-02-08T16:45:47.813Z,42.90
2019-02-08T16:48:17.147Z,34.87
2019-02-08T16:50:46.517Z,36.87
2019-02-08T16:53:15.860Z,39.33
2019-02-08T16:55:45.226Z,48.07
2019-02-08T16:58:14.563Z,48.17
2019-02-08T17:00:43.953Z,55.77
2019-02-08T17:03:14.325Z,63.67
2019-02-08T17:05:44.539Z,97.67
2019-02-08T17:08:13.882Z,66.67
2019-02-08T17:10:43.244Z,62.43
2019-02-08T17:13:12.690Z,73.57
2019-02-08T17:15:42.591Z,69.10
2019-02-08T17:18:11.967Z,74.30
2019-02-08T17:20:49.035Z,97.83
2019-02-08T17:23:18.896Z,104.63
2019-02-08T17:25:48.247Z,104.13
2019-02-08T17:28:17.627Z,195.97
2019-02-08T17:30:46.973Z,79.77
2019-02-08T17:33:16.605Z,64.47
2019-02-08T17:35:45.953Z,40.10
2019-02-08T17:38:15.313Z,36.90
2019-02-08T17:40:47.094Z,35.80
2019-02-08T17:43:16.548Z,50.17
2019-02-08T17:45:45.884Z,45.00
2019-02-08T17:48:16.193Z,44.63
2019-02-08T17:50:45.536Z,48.43
2019-02-08T17:53:14.902Z,48.13
2019-02-08T17:55:44.249Z,53.13
2019-02-08T17:58:13.857Z,55.30
2019-02-08T18:00:46.377Z,57.87
2019-02-08T18:03:15.744Z,53.33
2019-02-08T18:05:46.719Z,47.47
2019-02-08T18:08:16.089Z,47.27
2019-02-08T18:10:45.429Z,42.30
2019-02-08T18:13:14.934Z,38.67
2019-02-08T18:15:44.278Z,37.27
2019-02-08T18:18:15.850Z,38.17
2019-02-08T18:20:50.679Z,37.63
2019-02-08T18:23:20.050Z,46.20
2019-02-08T18:25:49.393Z,54.83
2019-02-08T18:28:18.753Z,41.67
2019-02-08T18:30:48.091Z,40.00
2019-02-08T18:33:17.445Z,38.47
2019-02-08T18:35:46.970Z,35.33
2019-02-08T18:38:16.560Z,33.77
2019-02-08T18:40:45.897Z,30.07
2019-02-08T18:43:15.262Z,31.23
2019-02-08T18:45:44.598Z,33.00
2019-02-08T18:48:13.965Z,35.07
2019-02-08T18:50:46.401Z,32.60
2019-02-08T18:53:15.774Z,36.57
2019-02-08T18:55:45.371Z,40.30
2019-02-08T18:58:19.260Z,40.33
2019-02-08T19:00:47.901Z,40.33
2019-02-08T19:03:17.240Z,38.30
2019-02-08T19:05:46.574Z,46.40
2019-02-08T19:08:15.950Z,43.77
2019-02-08T19:10:45.356Z,43.93
2019-02-08T19:13:14.716Z,35.97
2019-02-08T19:15:44.050Z,37.27
2019-02-08T19:18:13.709Z,39.30
2019-02-08T19:20:43.057Z,42.40
2019-02-08T19:23:12.771Z,45.83
2019-02-08T19:25:44.162Z,47.93
2019-02-08T19:28:14.629Z,67.77
2019-02-08T19:30:44.805Z,46.00
2019-02-08T19:33:14.597Z,40.50
2019-02-08T19:35:43.935Z,37.90
2019-02-08T19:38:13.652Z,34.33
2019-02-08T19:40:45.386Z,33.30
2019-02-08T19:43:14.794Z,29.07
2019-02-08T19:45:44.108Z,27.73
2019-02-08T19:48:14.940Z,29.93
2019-02-08T19:50:48.143Z,28.10
2019-02-08T19:53:17.517Z,30.27
2019-02-08T19:55:46.858Z,28.47
2019-02-08T19:58:16.635Z,27.20
2019-02-08T20:00:45.994Z,27.33
2019-02-08T20:03:15.598Z,30.10
2019-02-08T20:05:45.294Z,51.73
2019-02-08T20:08:14.708Z,40.87
2019-02-08T20:10:48.779Z,70.27
2019-02-08T20:13:18.136Z,63.73
2019-02-08T20:15:47.520Z,120.33
2019-02-08T20:18:16.862Z,36.60
2019-02-08T20:20:46.624Z,36.37
2019-02-08T20:23:15.941Z,26.07
2019-02-08T20:25:46.377Z,26.80
2019-02-08T20:28:15.788Z,29.47
2019-02-08T20:30:46.632Z,50.00
2019-02-08T20:33:15.965Z,38.00
2019-02-08T20:35:46.674Z,30.97
2019-02-08T20:38:16.099Z,30.87
2019-02-08T20:40:50.208Z,30.00
2019-02-08T20:43:19.635Z,36.03
2019-02-08T20:45:49.233Z,30.43
2019-02-08T20:48:20.628Z,32.03
2019-02-08T20:50:51.297Z,31.33
2019-02-08T20:53:20.692Z,31.43
2019-02-08T20:55:50.099Z,28.87
2019-02-08T20:58:19.755Z,28.17
2019-02-08T21:00:50.358Z,27.03
2019-02-08T21:03:19.783Z,28.37
2019-02-08T21:05:49.844Z,31.63
2019-02-08T21:08:19.249Z,31.93
2019-02-08T21:10:48.610Z,33.83
2019-02-08T21:13:19.461Z,33.23
2019-02-08T21:15:48.924Z,33.33
2019-02-08T21:18:18.248Z,34.47
2019-02-08T21:20:47.689Z,33.47
2019-02-08T21:23:17.025Z,29.87
2019-02-08T21:25:52.152Z,32.47
2019-02-08T21:28:18.648Z,37.60
2019-02-08T21:30:48.024Z,36.00
2019-02-08T21:33:17.544Z,137.53
2019-02-08T21:35:49.515Z,90.67
2019-02-08T21:38:19.194Z,52.40
2019-02-08T21:40:48.558Z,67.50
2019-02-08T21:43:17.893Z,58.53
2019-02-08T21:45:47.289Z,70.17
2019-02-08T21:48:16.625Z,58.63
2019-02-08T21:50:45.991Z,42.00
2019-02-08T21:53:15.369Z,34.70
2019-02-08T21:55:44.780Z,24.47
2019-02-08T21:58:14.122Z,25.50
2019-02-08T22:00:43.950Z,24.23
2019-02-08T22:03:13.617Z,24.33
2019-02-08T22:05:52.008Z,23.23
2019-02-08T22:08:21.346Z,25.10
2019-02-08T22:10:50.716Z,31.80
2019-02-08T22:13:20.049Z,29.37
2019-02-08T22:15:49.408Z,24.07
2019-02-08T22:18:20.225Z,22.10
2019-02-08T22:20:49.542Z,19.87
2019-02-08T22:23:20.534Z,20.30
2019-02-08T22:25:49.863Z,21.07
2019-02-08T22:28:19.228Z,20.87
2019-02-08T22:30:48.564Z,20.40
2019-02-08T22:33:17.930Z,22.60
2019-02-08T22:35:47.260Z,23.20
2019-02-08T22:38:16.633Z,26.23
2019-02-08T22:40:45.987Z,29.13
2019-02-08T22:43:15.352Z,29.23
2019-02-08T22:45:44.694Z,35.27
2019-02-08T22:48:14.535Z,27.00
2019-02-08T22:50:43.946Z,34.90
2019-02-08T22:53:13.331Z,29.60
2019-02-08T22:55:42.679Z,34.50
2019-02-08T22:58:12.622Z,37.83
2019-02-08T23:00:54.278Z,29.73
2019-02-08T23:03:23.585Z,26.50
2019-02-08T23:05:52.920Z,25.87
2019-02-08T23:08:22.295Z,23.43
2019-02-08T23:10:51.623Z,22.00
2019-02-08T23:13:21.002Z,21.90
2019-02-08T23:15:50.327Z,23.23
2019-02-08T23:18:19.699Z,20.97
2019-02-08T23:20:49.035Z,22.63
2019-02-08T23:23:18.397Z,21.30
2019-02-08T23:25:47.729Z,22.27
2019-02-08T23:28:17.095Z,27.03
2019-02-08T23:30:54.027Z,18.90
2019-02-08T23:33:23.392Z,17.80
2019-02-08T23:35:52.746Z,17.90
2019-02-08T23:38:22.121Z,17.63
2019-02-08T23:40:51.449Z,21.30
2019-02-08T23:43:20.816Z,20.80
2019-02-08T23:45:50.153Z,19.57
2019-02-08T23:48:19.520Z,18.87
2019-02-08T23:50:48.845Z,25.30
2019-02-08T23:53:18.214Z,22.17
2019-02-08T23:55:47.550Z,24.07
2019-02-08T23:58:16.936Z,19.40
